sensor_id;sensor_type;location;lat;lon;timestamp;P1;durP1;ratioP1;P2;durP2;ratioP2
56073;SDS011;41950;55.840;37.442;2024-03-17T00:02:21;14.27;;;5.72;;
56073;SDS011;41950;55.840;37.442;2024-03-17T00:04:47;15.48;;;6.32;;
56073;SDS011;41950;55.840;37.442;2024-03-17T00:07:13;19.13;;;6.75;;
56073;SDS011;41950;55.840;37.442;2024-03-17T00:09:39;18.67;;;6.47;;
56073;SDS011;41950;55.840;37.442;2024-03-17T00:12:05;19.50;;;6.00;;
56073;SDS011;41950;55.840;37.442;2024-03-17T00:14:32;16.30;;;6.03;;
56073;SDS011;41950;55.840;37.442;2024-03-17T00:17:00;20.10;;;5.85;;
56073;SDS011;41950;55.840;37.442;2024-03-17T00:19:26;18.00;;;6.22;;
56073;SDS011;41950;55.840;37.442;2024-03-17T00:21:52;15.35;;;6.03;;
56073;SDS011;41950;55.840;37.442;2024-03-17T00:24:18;17.23;;;6.30;;
56073;SDS011;41950;55.840;37.442;2024-03-17T00:26:45;22.73;;;6.32;;
56073;SDS011;41950;55.840;37.442;2024-03-17T00:29:15;20.15;;;6.90;;
56073;SDS011;41950;55.840;37.442;2024-03-17T00:31:41;18.92;;;7.22;;
56073;SDS011;41950;55.840;37.442;2024-03-17T00:34:07;24.08;;;6.82;;
56073;SDS011;41950;55.840;37.442;2024-03-17T00:36:33;18.52;;;6.38;;
56073;SDS011;41950;55.840;37.442;2024-03-17T00:38:59;21.17;;;6.10;;
56073;SDS011;41950;55.840;37.442;2024-03-17T00:41:25;17.08;;;6.15;;
56073;SDS011;41950;55.840;37.442;2024-03-17T00:43:51;19.00;;;6.45;;
56073;SDS011;41950;55.840;37.442;2024-03-17T00:46:18;17.50;;;6.40;;
56073;SDS011;41950;55.840;37.442;2024-03-17T00:48:48;19.70;;;6.88;;
56073;SDS011;41950;55.840;37.442;2024-03-17T00:51:15;17.38;;;6.72;;
56073;SDS011;41950;55.840;37.442;2024-03-17T00:53:41;22.20;;;7.22;;
56073;SDS011;41950;55.840;37.442;2024-03-17T00:56:06;20.63;;;7.65;;
56073;SDS011;41950;55.840;37.442;2024-03-17T00:58:32;19.42;;;7.38;;
56073;SDS011;41950;55.840;37.442;2024-03-17T01:00:58;20.90;;;6.50;;
56073;SDS011;41950;55.840;37.442;2024-03-17T01:03:23;14.00;;;6.00;;
56073;SDS011;41950;55.840;37.442;2024-03-17T01:05:49;17.77;;;6.68;;
56073;SDS011;41950;55.840;37.442;2024-03-17T01:08:17;18.95;;;6.88;;
56073;SDS011;41950;55.840;37.442;2024-03-17T01:10:44;19.48;;;7.10;;
56073;SDS011;41950;55.840;37.442;2024-03-17T01:13:11;17.92;;;7.50;;
56073;SDS011;41950;55.840;37.442;2024-03-17T01:15:37;17.08;;;7.13;;
56073;SDS011;41950;55.840;37.442;2024-03-17T01:18:03;14.75;;;6.55;;
56073;SDS011;41950;55.840;37.442;2024-03-17T01:20:30;16.88;;;7.00;;
56073;SDS011;41950;55.840;37.442;2024-03-17T01:22:56;19.75;;;7.05;;
56073;SDS011;41950;55.840;37.442;2024-03-17T01:25:22;18.23;;;6.90;;
56073;SDS011;41950;55.840;37.442;2024-03-17T01:27:48;20.80;;;7.35;;
56073;SDS011;41950;55.840;37.442;2024-03-17T01:30:14;19.83;;;7.45;;
56073;SDS011;41950;55.840;37.442;2024-03-17T01:32:39;17.52;;;8.05;;
56073;SDS011;41950;55.840;37.442;2024-03-17T01:35:05;21.85;;;7.40;;
56073;SDS011;41950;55.840;37.442;2024-03-17T01:37:32;18.67;;;6.82;;
56073;SDS011;41950;55.840;37.442;2024-03-17T01:39:58;21.55;;;7.50;;
56073;SDS011;41950;55.840;37.442;2024-03-17T01:42:24;22.98;;;7.78;;
56073;SDS011;41950;55.840;37.442;2024-03-17T01:44:50;26.48;;;8.23;;
56073;SDS011;41950;55.840;37.442;2024-03-17T01:47:16;20.45;;;7.80;;
56073;SDS011;41950;55.840;37.442;2024-03-17T01:49:44;19.73;;;7.57;;
56073;SDS011;41950;55.840;37.442;2024-03-17T01:52:14;19.67;;;8.10;;
56073;SDS011;41950;55.840;37.442;2024-03-17T01:54:42;17.35;;;7.40;;
56073;SDS011;41950;55.840;37.442;2024-03-17T01:57:08;20.00;;;8.32;;
56073;SDS011;41950;55.840;37.442;2024-03-17T01:59:35;24.30;;;7.63;;
56073;SDS011;41950;55.840;37.442;2024-03-17T02:02:01;23.48;;;8.32;;
56073;SDS011;41950;55.840;37.442;2024-03-17T02:04:27;25.20;;;8.05;;
56073;SDS011;41950;55.840;37.442;2024-03-17T02:06:53;24.15;;;8.05;;
56073;SDS011;41950;55.840;37.442;2024-03-17T02:09:19;22.48;;;9.38;;
56073;SDS011;41950;55.840;37.442;2024-03-17T02:11:47;20.23;;;7.80;;
56073;SDS011;41950;55.840;37.442;2024-03-17T02:14:13;21.92;;;8.65;;
56073;SDS011;41950;55.840;37.442;2024-03-17T02:16:40;19.95;;;8.80;;
56073;SDS011;41950;55.840;37.442;2024-03-17T02:19:06;22.77;;;8.35;;
56073;SDS011;41950;55.840;37.442;2024-03-17T02:21:32;23.20;;;8.27;;
56073;SDS011;41950;55.840;37.442;2024-03-17T02:23:57;22.58;;;7.40;;
56073;SDS011;41950;55.840;37.442;2024-03-17T02:26:24;22.25;;;7.85;;
56073;SDS011;41950;55.840;37.442;2024-03-17T02:28:51;19.20;;;7.82;;
56073;SDS011;41950;55.840;37.442;2024-03-17T02:31:17;20.90;;;7.85;;
56073;SDS011;41950;55.840;37.442;2024-03-17T02:33:43;18.45;;;7.25;;
56073;SDS011;41950;55.840;37.442;2024-03-17T02:36:10;24.90;;;8.32;;
56073;SDS011;41950;55.840;37.442;2024-03-17T02:38:38;20.33;;;8.20;;
56073;SDS011;41950;55.840;37.442;2024-03-17T02:41:23;21.63;;;7.88;;
56073;SDS011;41950;55.840;37.442;2024-03-17T02:43:48;19.63;;;8.68;;
56073;SDS011;41950;55.840;37.442;2024-03-17T02:46:15;19.52;;;9.07;;
56073;SDS011;41950;55.840;37.442;2024-03-17T02:48:42;17.20;;;8.20;;
56073;SDS011;41950;55.840;37.442;2024-03-17T02:51:14;23.08;;;8.52;;
56073;SDS011;41950;55.840;37.442;2024-03-17T02:53:41;17.77;;;8.00;;
56073;SDS011;41950;55.840;37.442;2024-03-17T02:56:07;24.38;;;7.97;;
56073;SDS011;41950;55.840;37.442;2024-03-17T02:58:37;20.10;;;8.45;;
56073;SDS011;41950;55.840;37.442;2024-03-17T03:01:04;21.17;;;8.02;;
56073;SDS011;41950;55.840;37.442;2024-03-17T03:03:30;24.40;;;8.82;;
56073;SDS011;41950;55.840;37.442;2024-03-17T03:05:57;22.95;;;8.77;;
56073;SDS011;41950;55.840;37.442;2024-03-17T03:08:23;20.13;;;8.93;;
56073;SDS011;41950;55.840;37.442;2024-03-17T03:10:50;30.55;;;9.68;;
56073;SDS011;41950;55.840;37.442;2024-03-17T03:13:16;24.58;;;9.38;;
56073;SDS011;41950;55.840;37.442;2024-03-17T03:15:42;21.77;;;8.23;;
56073;SDS011;41950;55.840;37.442;2024-03-17T03:18:08;28.80;;;9.60;;
56073;SDS011;41950;55.840;37.442;2024-03-17T03:20:34;27.38;;;9.30;;
56073;SDS011;41950;55.840;37.442;2024-03-17T03:23:00;24.17;;;9.48;;
56073;SDS011;41950;55.840;37.442;2024-03-17T03:25:27;26.98;;;9.45;;
56073;SDS011;41950;55.840;37.442;2024-03-17T03:27:53;21.67;;;8.68;;
56073;SDS011;41950;55.840;37.442;2024-03-17T03:30:21;20.63;;;8.77;;
56073;SDS011;41950;55.840;37.442;2024-03-17T03:32:47;24.10;;;9.40;;
56073;SDS011;41950;55.840;37.442;2024-03-17T03:35:13;24.60;;;9.40;;
56073;SDS011;41950;55.840;37.442;2024-03-17T03:37:40;24.05;;;10.15;;
56073;SDS011;41950;55.840;37.442;2024-03-17T03:40:06;23.15;;;9.02;;
56073;SDS011;41950;55.840;37.442;2024-03-17T03:42:44;21.30;;;9.73;;
56073;SDS011;41950;55.840;37.442;2024-03-17T03:45:10;20.33;;;8.85;;
56073;SDS011;41950;55.840;37.442;2024-03-17T03:47:39;28.83;;;10.40;;
56073;SDS011;41950;55.840;37.442;2024-03-17T03:50:09;22.40;;;8.38;;
56073;SDS011;41950;55.840;37.442;2024-03-17T03:52:36;22.55;;;9.73;;
56073;SDS011;41950;55.840;37.442;2024-03-17T03:55:02;24.10;;;9.30;;
56073;SDS011;41950;55.840;37.442;2024-03-17T03:57:30;26.63;;;9.88;;
56073;SDS011;41950;55.840;37.442;2024-03-17T03:59:57;22.90;;;10.07;;
56073;SDS011;41950;55.840;37.442;2024-03-17T04:02:24;24.27;;;9.25;;
56073;SDS011;41950;55.840;37.442;2024-03-17T04:04:52;26.05;;;9.70;;
56073;SDS011;41950;55.840;37.442;2024-03-17T04:07:18;20.33;;;9.00;;
56073;SDS011;41950;55.840;37.442;2024-03-17T04:09:44;23.33;;;9.30;;
56073;SDS011;41950;55.840;37.442;2024-03-17T04:12:09;26.17;;;9.23;;
56073;SDS011;41950;55.840;37.442;2024-03-17T04:14:35;22.73;;;9.48;;
56073;SDS011;41950;55.840;37.442;2024-03-17T04:17:01;23.50;;;10.05;;
56073;SDS011;41950;55.840;37.442;2024-03-17T04:19:26;21.83;;;10.25;;
56073;SDS011;41950;55.840;37.442;2024-03-17T04:21:54;22.10;;;9.77;;
56073;SDS011;41950;55.840;37.442;2024-03-17T04:24:19;19.40;;;10.35;;
56073;SDS011;41950;55.840;37.442;2024-03-17T04:26:45;23.00;;;10.45;;
56073;SDS011;41950;55.840;37.442;2024-03-17T04:29:11;25.63;;;10.32;;
56073;SDS011;41950;55.840;37.442;2024-03-17T04:31:37;26.67;;;10.43;;
56073;SDS011;41950;55.840;37.442;2024-03-17T04:34:03;24.67;;;10.82;;
56073;SDS011;41950;55.840;37.442;2024-03-17T04:36:28;20.30;;;9.50;;
56073;SDS011;41950;55.840;37.442;2024-03-17T04:38:54;19.80;;;10.32;;
56073;SDS011;41950;55.840;37.442;2024-03-17T04:41:22;24.70;;;11.02;;
56073;SDS011;41950;55.840;37.442;2024-03-17T04:43:47;21.10;;;10.00;;
56073;SDS011;41950;55.840;37.442;2024-03-17T04:46:13;23.42;;;10.65;;
56073;SDS011;41950;55.840;37.442;2024-03-17T04:48:40;24.08;;;11.00;;
56073;SDS011;41950;55.840;37.442;2024-03-17T04:51:07;21.23;;;10.15;;
56073;SDS011;41950;55.840;37.442;2024-03-17T04:53:32;21.30;;;10.68;;
56073;SDS011;41950;55.840;37.442;2024-03-17T04:56:01;23.77;;;11.63;;
56073;SDS011;41950;55.840;37.442;2024-03-17T04:58:33;24.23;;;10.82;;
56073;SDS011;41950;55.840;37.442;2024-03-17T05:01:06;21.27;;;10.18;;
56073;SDS011;41950;55.840;37.442;2024-03-17T05:03:33;21.13;;;10.25;;
56073;SDS011;41950;55.840;37.442;2024-03-17T05:06:03;27.40;;;10.18;;
56073;SDS011;41950;55.840;37.442;2024-03-17T05:08:30;24.15;;;10.25;;
56073;SDS011;41950;55.840;37.442;2024-03-17T05:11:01;21.80;;;10.70;;
56073;SDS011;41950;55.840;37.442;2024-03-17T05:13:30;22.50;;;10.30;;
56073;SDS011;41950;55.840;37.442;2024-03-17T05:16:00;21.45;;;10.35;;
56073;SDS011;41950;55.840;37.442;2024-03-17T05:18:26;19.38;;;9.70;;
56073;SDS011;41950;55.840;37.442;2024-03-17T05:21:05;22.38;;;9.75;;
56073;SDS011;41950;55.840;37.442;2024-03-17T05:23:35;22.60;;;11.05;;
56073;SDS011;41950;55.840;37.442;2024-03-17T05:26:02;21.27;;;11.18;;
56073;SDS011;41950;55.840;37.442;2024-03-17T05:28:29;24.58;;;9.77;;
56073;SDS011;41950;55.840;37.442;2024-03-17T05:30:56;28.75;;;10.75;;
56073;SDS011;41950;55.840;37.442;2024-03-17T05:33:22;24.00;;;11.25;;
56073;SDS011;41950;55.840;37.442;2024-03-17T05:35:56;23.35;;;10.68;;
56073;SDS011;41950;55.840;37.442;2024-03-17T05:38:24;27.63;;;10.93;;
56073;SDS011;41950;55.840;37.442;2024-03-17T05:40:53;19.25;;;9.80;;
56073;SDS011;41950;55.840;37.442;2024-03-17T05:43:20;23.95;;;9.60;;
56073;SDS011;41950;55.840;37.442;2024-03-17T05:45:47;22.83;;;10.15;;
56073;SDS011;41950;55.840;37.442;2024-03-17T05:48:13;24.88;;;10.48;;
56073;SDS011;41950;55.840;37.442;2024-03-17T05:50:38;22.30;;;10.32;;
56073;SDS011;41950;55.840;37.442;2024-03-17T05:53:04;30.42;;;10.80;;
56073;SDS011;41950;55.840;37.442;2024-03-17T05:55:30;23.52;;;10.27;;
56073;SDS011;41950;55.840;37.442;2024-03-17T05:57:56;27.90;;;11.15;;
56073;SDS011;41950;55.840;37.442;2024-03-17T06:00:21;21.92;;;10.05;;
56073;SDS011;41950;55.840;37.442;2024-03-17T06:02:47;22.40;;;10.55;;
56073;SDS011;41950;55.840;37.442;2024-03-17T06:05:13;26.05;;;10.15;;
56073;SDS011;41950;55.840;37.442;2024-03-17T06:07:39;24.90;;;11.63;;
56073;SDS011;41950;55.840;37.442;2024-03-17T06:10:06;20.50;;;10.98;;
56073;SDS011;41950;55.840;37.442;2024-03-17T06:12:32;25.80;;;11.50;;
56073;SDS011;41950;55.840;37.442;2024-03-17T06:14:57;27.38;;;11.75;;
56073;SDS011;41950;55.840;37.442;2024-03-17T06:17:23;19.90;;;10.48;;
56073;SDS011;41950;55.840;37.442;2024-03-17T06:19:48;22.27;;;11.10;;
56073;SDS011;41950;55.840;37.442;2024-03-17T06:22:14;22.75;;;11.07;;
56073;SDS011;41950;55.840;37.442;2024-03-17T06:24:40;22.85;;;10.63;;
56073;SDS011;41950;55.840;37.442;2024-03-17T06:27:06;29.02;;;12.00;;
56073;SDS011;41950;55.840;37.442;2024-03-17T06:29:34;26.13;;;11.02;;
56073;SDS011;41950;55.840;37.442;2024-03-17T06:32:00;29.80;;;11.30;;
56073;SDS011;41950;55.840;37.442;2024-03-17T06:34:25;24.10;;;11.00;;
56073;SDS011;41950;55.840;37.442;2024-03-17T06:36:51;23.10;;;10.50;;
56073;SDS011;41950;55.840;37.442;2024-03-17T06:39:17;23.65;;;11.00;;
56073;SDS011;41950;55.840;37.442;2024-03-17T06:41:44;26.55;;;10.80;;
56073;SDS011;41950;55.840;37.442;2024-03-17T06:44:10;26.65;;;11.13;;
56073;SDS011;41950;55.840;37.442;2024-03-17T06:46:36;25.75;;;11.07;;
56073;SDS011;41950;55.840;37.442;2024-03-17T06:49:02;27.02;;;11.05;;
56073;SDS011;41950;55.840;37.442;2024-03-17T06:51:27;24.52;;;10.52;;
56073;SDS011;41950;55.840;37.442;2024-03-17T06:53:53;22.90;;;10.38;;
56073;SDS011;41950;55.840;37.442;2024-03-17T06:56:18;24.30;;;11.80;;
56073;SDS011;41950;55.840;37.442;2024-03-17T06:58:44;24.77;;;10.43;;
56073;SDS011;41950;55.840;37.442;2024-03-17T07:01:10;31.40;;;12.13;;
56073;SDS011;41950;55.840;37.442;2024-03-17T07:03:36;27.52;;;11.43;;
56073;SDS011;41950;55.840;37.442;2024-03-17T07:06:02;25.83;;;11.80;;
56073;SDS011;41950;55.840;37.442;2024-03-17T07:08:28;26.58;;;10.88;;
56073;SDS011;41950;55.840;37.442;2024-03-17T07:13:21;23.90;;;11.50;;
56073;SDS011;41950;55.840;37.442;2024-03-17T07:15:47;26.48;;;11.07;;
56073;SDS011;41950;55.840;37.442;2024-03-17T07:18:13;23.55;;;11.40;;
56073;SDS011;41950;55.840;37.442;2024-03-17T07:20:38;27.98;;;11.27;;
56073;SDS011;41950;55.840;37.442;2024-03-17T07:23:04;21.92;;;10.55;;
56073;SDS011;41950;55.840;37.442;2024-03-17T07:25:30;17.08;;;10.40;;
56073;SDS011;41950;55.840;37.442;2024-03-17T07:27:56;24.15;;;10.98;;
56073;SDS011;41950;55.840;37.442;2024-03-17T07:30:21;22.88;;;10.80;;
56073;SDS011;41950;55.840;37.442;2024-03-17T07:32:47;28.42;;;11.25;;
56073;SDS011;41950;55.840;37.442;2024-03-17T07:35:12;26.73;;;10.93;;
56073;SDS011;41950;55.840;37.442;2024-03-17T07:37:39;26.38;;;11.70;;
56073;SDS011;41950;55.840;37.442;2024-03-17T07:40:05;21.60;;;11.75;;
56073;SDS011;41950;55.840;37.442;2024-03-17T07:42:36;24.80;;;12.10;;
56073;SDS011;41950;55.840;37.442;2024-03-17T07:45:02;29.27;;;11.57;;
56073;SDS011;41950;55.840;37.442;2024-03-17T07:47:30;29.17;;;11.85;;
56073;SDS011;41950;55.840;37.442;2024-03-17T07:50:04;19.80;;;9.95;;
56073;SDS011;41950;55.840;37.442;2024-03-17T07:52:31;25.58;;;10.85;;
56073;SDS011;41950;55.840;37.442;2024-03-17T07:54:57;27.67;;;11.32;;
56073;SDS011;41950;55.840;37.442;2024-03-17T07:57:23;27.00;;;11.68;;
56073;SDS011;41950;55.840;37.442;2024-03-17T07:59:50;32.50;;;11.77;;
56073;SDS011;41950;55.840;37.442;2024-03-17T08:02:16;32.55;;;11.65;;
56073;SDS011;41950;55.840;37.442;2024-03-17T08:04:42;22.45;;;9.90;;
56073;SDS011;41950;55.840;37.442;2024-03-17T08:07:10;29.58;;;11.77;;
56073;SDS011;41950;55.840;37.442;2024-03-17T08:09:36;26.45;;;10.70;;
56073;SDS011;41950;55.840;37.442;2024-03-17T08:12:02;32.40;;;11.52;;
56073;SDS011;41950;55.840;37.442;2024-03-17T08:14:30;20.13;;;10.07;;
56073;SDS011;41950;55.840;37.442;2024-03-17T08:16:56;25.67;;;10.77;;
56073;SDS011;41950;55.840;37.442;2024-03-17T08:19:21;23.88;;;10.88;;
56073;SDS011;41950;55.840;37.442;2024-03-17T08:21:47;30.63;;;11.45;;
56073;SDS011;41950;55.840;37.442;2024-03-17T08:24:13;24.80;;;11.43;;
56073;SDS011;41950;55.840;37.442;2024-03-17T08:26:38;32.70;;;11.32;;
56073;SDS011;41950;55.840;37.442;2024-03-17T08:29:10;26.50;;;10.18;;
56073;SDS011;41950;55.840;37.442;2024-03-17T08:31:36;25.70;;;10.43;;
56073;SDS011;41950;55.840;37.442;2024-03-17T08:34:02;25.25;;;10.30;;
56073;SDS011;41950;55.840;37.442;2024-03-17T08:36:28;24.27;;;10.60;;
56073;SDS011;41950;55.840;37.442;2024-03-17T08:38:54;24.00;;;10.88;;
56073;SDS011;41950;55.840;37.442;2024-03-17T08:41:23;24.27;;;10.48;;
56073;SDS011;41950;55.840;37.442;2024-03-17T08:43:49;22.15;;;11.45;;
56073;SDS011;41950;55.840;37.442;2024-03-17T08:46:15;25.33;;;12.00;;
56073;SDS011;41950;55.840;37.442;2024-03-17T08:48:40;31.27;;;11.68;;
56073;SDS011;41950;55.840;37.442;2024-03-17T08:51:08;26.75;;;12.02;;
56073;SDS011;41950;55.840;37.442;2024-03-17T08:53:34;31.42;;;12.00;;
56073;SDS011;41950;55.840;37.442;2024-03-17T08:56:02;20.08;;;10.20;;
56073;SDS011;41950;55.840;37.442;2024-03-17T08:58:28;29.73;;;11.07;;
56073;SDS011;41950;55.840;37.442;2024-03-17T09:00:54;22.05;;;11.15;;
56073;SDS011;41950;55.840;37.442;2024-03-17T09:03:21;27.85;;;11.30;;
56073;SDS011;41950;55.840;37.442;2024-03-17T09:05:47;25.92;;;10.20;;
56073;SDS011;41950;55.840;37.442;2024-03-17T09:08:17;28.27;;;10.52;;
56073;SDS011;41950;55.840;37.442;2024-03-17T09:10:45;27.23;;;11.27;;
56073;SDS011;41950;55.840;37.442;2024-03-17T09:13:15;27.95;;;10.88;;
56073;SDS011;41950;55.840;37.442;2024-03-17T09:18:25;30.00;;;11.50;;
56073;SDS011;41950;55.840;37.442;2024-03-17T09:21:01;23.85;;;10.40;;
56073;SDS011;41950;55.840;37.442;2024-03-17T09:23:29;25.35;;;10.57;;
56073;SDS011;41950;55.840;37.442;2024-03-17T09:26:01;22.45;;;9.75;;
56073;SDS011;41950;55.840;37.442;2024-03-17T09:28:29;27.38;;;10.35;;
56073;SDS011;41950;55.840;37.442;2024-03-17T09:30:56;25.40;;;10.75;;
56073;SDS011;41950;55.840;37.442;2024-03-17T09:33:25;25.90;;;10.80;;
56073;SDS011;41950;55.840;37.442;2024-03-17T09:35:58;27.55;;;10.10;;
56073;SDS011;41950;55.840;37.442;2024-03-17T09:38:24;26.35;;;10.02;;
56073;SDS011;41950;55.840;37.442;2024-03-17T09:40:50;22.92;;;10.70;;
56073;SDS011;41950;55.840;37.442;2024-03-17T09:43:21;23.60;;;10.43;;
56073;SDS011;41950;55.840;37.442;2024-03-17T09:45:51;25.85;;;11.02;;
56073;SDS011;41950;55.840;37.442;2024-03-17T09:48:24;24.23;;;9.07;;
56073;SDS011;41950;55.840;37.442;2024-03-17T09:50:51;23.60;;;9.57;;
56073;SDS011;41950;55.840;37.442;2024-03-17T09:53:23;26.13;;;9.88;;
56073;SDS011;41950;55.840;37.442;2024-03-17T09:55:51;25.47;;;9.77;;
56073;SDS011;41950;55.840;37.442;2024-03-17T09:58:18;22.73;;;9.40;;
56073;SDS011;41950;55.840;37.442;2024-03-17T10:00:45;24.00;;;9.35;;
56073;SDS011;41950;55.840;37.442;2024-03-17T10:03:11;22.38;;;10.15;;
56073;SDS011;41950;55.840;37.442;2024-03-17T10:05:38;27.85;;;10.50;;
56073;SDS011;41950;55.840;37.442;2024-03-17T10:08:03;25.58;;;10.43;;
56073;SDS011;41950;55.840;37.442;2024-03-17T10:10:29;27.83;;;10.65;;
56073;SDS011;41950;55.840;37.442;2024-03-17T10:12:55;24.02;;;10.32;;
56073;SDS011;41950;55.840;37.442;2024-03-17T10:15:21;23.85;;;9.23;;
56073;SDS011;41950;55.840;37.442;2024-03-17T10:17:48;22.73;;;9.60;;
56073;SDS011;41950;55.840;37.442;2024-03-17T10:20:15;25.45;;;10.27;;
56073;SDS011;41950;55.840;37.442;2024-03-17T10:23:04;26.20;;;10.27;;
56073;SDS011;41950;55.840;37.442;2024-03-17T10:25:32;24.23;;;10.95;;
56073;SDS011;41950;55.840;37.442;2024-03-17T10:27:59;25.30;;;10.70;;
56073;SDS011;41950;55.840;37.442;2024-03-17T10:30:26;22.50;;;11.38;;
56073;SDS011;41950;55.840;37.442;2024-03-17T10:32:56;26.33;;;10.35;;
56073;SDS011;41950;55.840;37.442;2024-03-17T10:37:59;26.85;;;10.77;;
56073;SDS011;41950;55.840;37.442;2024-03-17T10:40:27;23.80;;;10.05;;
56073;SDS011;41950;55.840;37.442;2024-03-17T10:43:00;20.33;;;10.13;;
56073;SDS011;41950;55.840;37.442;2024-03-17T10:45:26;21.48;;;10.25;;
56073;SDS011;41950;55.840;37.442;2024-03-17T10:47:59;24.67;;;10.98;;
56073;SDS011;41950;55.840;37.442;2024-03-17T10:50:30;26.30;;;11.43;;
56073;SDS011;41950;55.840;37.442;2024-03-17T10:53:01;22.77;;;10.27;;
56073;SDS011;41950;55.840;37.442;2024-03-17T10:55:29;22.40;;;9.65;;
56073;SDS011;41950;55.840;37.442;2024-03-17T10:58:02;27.40;;;10.40;;
56073;SDS011;41950;55.840;37.442;2024-03-17T11:00:30;22.63;;;10.68;;
56073;SDS011;41950;55.840;37.442;2024-03-17T11:02:57;26.77;;;10.85;;
56073;SDS011;41950;55.840;37.442;2024-03-17T11:05:27;21.17;;;9.32;;
56073;SDS011;41950;55.840;37.442;2024-03-17T11:07:59;24.42;;;10.77;;
56073;SDS011;41950;55.840;37.442;2024-03-17T11:10:29;25.20;;;9.90;;
56073;SDS011;41950;55.840;37.442;2024-03-17T11:12:58;19.23;;;9.93;;
56073;SDS011;41950;55.840;37.442;2024-03-17T11:17:52;23.75;;;9.40;;
56073;SDS011;41950;55.840;37.442;2024-03-17T11:20:21;24.38;;;9.85;;
56073;SDS011;41950;55.840;37.442;2024-03-17T11:22:51;18.92;;;9.75;;
56073;SDS011;41950;55.840;37.442;2024-03-17T11:27:57;22.02;;;9.95;;
56073;SDS011;41950;55.840;37.442;2024-03-17T11:41:44;19.02;;;8.27;;
56073;SDS011;41950;55.840;37.442;2024-03-17T11:46:56;18.23;;;8.85;;
56073;SDS011;41950;55.840;37.442;2024-03-17T11:49:27;19.38;;;8.88;;
56073;SDS011;41950;55.840;37.442;2024-03-17T11:51:55;22.13;;;7.85;;
56073;SDS011;41950;55.840;37.442;2024-03-17T11:54:23;21.65;;;8.68;;
56073;SDS011;41950;55.840;37.442;2024-03-17T11:56:53;27.88;;;9.82;;
56073;SDS011;41950;55.840;37.442;2024-03-17T11:59:20;22.35;;;8.40;;
56073;SDS011;41950;55.840;37.442;2024-03-17T12:01:48;25.05;;;10.07;;
56073;SDS011;41950;55.840;37.442;2024-03-17T12:04:15;23.15;;;9.82;;
56073;SDS011;41950;55.840;37.442;2024-03-17T12:06:48;22.02;;;9.18;;
56073;SDS011;41950;55.840;37.442;2024-03-17T12:09:18;24.52;;;9.80;;
56073;SDS011;41950;55.840;37.442;2024-03-17T12:12:04;23.30;;;8.57;;
56073;SDS011;41950;55.840;37.442;2024-03-17T12:14:33;22.13;;;9.43;;
56073;SDS011;41950;55.840;37.442;2024-03-17T12:17:01;24.73;;;8.95;;
56073;SDS011;41950;55.840;37.442;2024-03-17T12:19:29;23.50;;;8.90;;
56073;SDS011;41950;55.840;37.442;2024-03-17T12:21:55;21.10;;;8.68;;
56073;SDS011;41950;55.840;37.442;2024-03-17T12:24:24;24.38;;;9.55;;
56073;SDS011;41950;55.840;37.442;2024-03-17T12:26:51;23.83;;;9.73;;
56073;SDS011;41950;55.840;37.442;2024-03-17T12:29:36;24.02;;;9.32;;
56073;SDS011;41950;55.840;37.442;2024-03-17T12:34:42;26.63;;;9.90;;
56073;SDS011;41950;55.840;37.442;2024-03-17T12:37:11;25.08;;;9.05;;
56073;SDS011;41950;55.840;37.442;2024-03-17T12:39:42;25.50;;;9.57;;
56073;SDS011;41950;55.840;37.442;2024-03-17T12:42:12;36.60;;;10.38;;
56073;SDS011;41950;55.840;37.442;2024-03-17T12:44:39;34.38;;;9.23;;
56073;SDS011;41950;55.840;37.442;2024-03-17T12:47:15;31.27;;;9.60;;
56073;SDS011;41950;55.840;37.442;2024-03-17T12:49:46;26.88;;;9.48;;
56073;SDS011;41950;55.840;37.442;2024-03-17T12:52:20;30.33;;;10.10;;
56073;SDS011;41950;55.840;37.442;2024-03-17T12:55:00;28.13;;;9.80;;
56073;SDS011;41950;55.840;37.442;2024-03-17T12:57:46;30.35;;;10.38;;
56073;SDS011;41950;55.840;37.442;2024-03-17T13:00:34;30.65;;;10.63;;
56073;SDS011;41950;55.840;37.442;2024-03-17T13:03:04;35.15;;;10.18;;
56073;SDS011;41950;55.840;37.442;2024-03-17T13:05:37;37.72;;;10.13;;
56073;SDS011;41950;55.840;37.442;2024-03-17T13:08:02;33.33;;;9.75;;
56073;SDS011;41950;55.840;37.442;2024-03-17T13:10:29;30.13;;;9.57;;
56073;SDS011;41950;55.840;37.442;2024-03-17T13:13:01;32.25;;;9.57;;
56073;SDS011;41950;55.840;37.442;2024-03-17T13:15:29;27.50;;;9.23;;
56073;SDS011;41950;55.840;37.442;2024-03-17T13:18:00;29.70;;;9.27;;
56073;SDS011;41950;55.840;37.442;2024-03-17T13:20:25;32.00;;;9.38;;
56073;SDS011;41950;55.840;37.442;2024-03-17T13:22:52;29.52;;;9.20;;
56073;SDS011;41950;55.840;37.442;2024-03-17T13:25:18;31.92;;;10.18;;
56073;SDS011;41950;55.840;37.442;2024-03-17T13:27:50;31.58;;;8.95;;
56073;SDS011;41950;55.840;37.442;2024-03-17T13:30:16;37.80;;;9.50;;
56073;SDS011;41950;55.840;37.442;2024-03-17T13:32:43;25.05;;;8.55;;
56073;SDS011;41950;55.840;37.442;2024-03-17T13:35:20;29.77;;;8.77;;
56073;SDS011;41950;55.840;37.442;2024-03-17T13:37:47;24.88;;;8.27;;
56073;SDS011;41950;55.840;37.442;2024-03-17T13:40:14;31.88;;;9.48;;
56073;SDS011;41950;55.840;37.442;2024-03-17T13:42:44;31.40;;;9.25;;
56073;SDS011;41950;55.840;37.442;2024-03-17T13:45:11;27.65;;;9.45;;
56073;SDS011;41950;55.840;37.442;2024-03-17T13:47:38;31.23;;;9.38;;
56073;SDS011;41950;55.840;37.442;2024-03-17T13:50:04;29.17;;;8.60;;
56073;SDS011;41950;55.840;37.442;2024-03-17T13:52:36;29.83;;;9.40;;
56073;SDS011;41950;55.840;37.442;2024-03-17T13:55:03;25.67;;;8.23;;
56073;SDS011;41950;55.840;37.442;2024-03-17T13:57:32;24.85;;;8.52;;
56073;SDS011;41950;55.840;37.442;2024-03-17T13:59:58;24.83;;;8.68;;
56073;SDS011;41950;55.840;37.442;2024-03-17T14:02:29;31.15;;;8.90;;
56073;SDS011;41950;55.840;37.442;2024-03-17T14:04:55;29.63;;;8.30;;
56073;SDS011;41950;55.840;37.442;2024-03-17T14:07:20;34.70;;;9.85;;
56073;SDS011;41950;55.840;37.442;2024-03-17T14:09:46;21.98;;;8.40;;
56073;SDS011;41950;55.840;37.442;2024-03-17T14:12:12;33.70;;;9.82;;
56073;SDS011;41950;55.840;37.442;2024-03-17T14:14:37;26.23;;;9.73;;
56073;SDS011;41950;55.840;37.442;2024-03-17T14:17:03;29.27;;;9.80;;
56073;SDS011;41950;55.840;37.442;2024-03-17T14:19:28;29.80;;;9.63;;
56073;SDS011;41950;55.840;37.442;2024-03-17T14:21:54;31.58;;;9.63;;
56073;SDS011;41950;55.840;37.442;2024-03-17T14:24:20;34.08;;;9.38;;
56073;SDS011;41950;55.840;37.442;2024-03-17T14:26:46;24.45;;;8.80;;
56073;SDS011;41950;55.840;37.442;2024-03-17T14:29:12;33.30;;;9.50;;
56073;SDS011;41950;55.840;37.442;2024-03-17T14:31:37;31.73;;;9.88;;
56073;SDS011;41950;55.840;37.442;2024-03-17T14:34:04;38.45;;;10.63;;
56073;SDS011;41950;55.840;37.442;2024-03-17T14:36:36;26.08;;;8.57;;
56073;SDS011;41950;55.840;37.442;2024-03-17T14:39:02;30.45;;;9.18;;
56073;SDS011;41950;55.840;37.442;2024-03-17T14:41:29;32.53;;;9.50;;
56073;SDS011;41950;55.840;37.442;2024-03-17T14:43:56;29.85;;;8.75;;
56073;SDS011;41950;55.840;37.442;2024-03-17T14:46:22;25.92;;;8.63;;
56073;SDS011;41950;55.840;37.442;2024-03-17T14:48:48;29.08;;;9.65;;